sensor_id;sensor_type;location;lat;lon;timestamp;P1;durP1;ratioP1;P2;durP2;ratioP2
33104;SDS011;19476;51.448;6.674;2023-02-26T00:01:17;4.82;;;1.58;;
33104;SDS011;19476;51.448;6.674;2023-02-26T00:03:49;4.80;;;1.05;;
33104;SDS011;19476;51.448;6.674;2023-02-26T00:28:37;5.63;;;1.58;;
33104;SDS011;19476;51.448;6.674;2023-02-26T00:34:25;5.05;;;1.33;;
33104;SDS011;19476;51.448;6.674;2023-02-26T01:03:16;3.80;;;0.98;;
33104;SDS011;19476;51.448;6.674;2023-02-26T01:05:42;4.13;;;1.10;;
33104;SDS011;19476;51.448;6.674;2023-02-26T01:08:11;2.30;;;0.80;;
33104;SDS011;19476;51.448;6.674;2023-02-26T01:11:32;2.22;;;0.80;;
33104;SDS011;19476;51.448;6.674;2023-02-26T01:26:39;3.97;;;1.00;;
33104;SDS011;19476;51.448;6.674;2023-02-26T01:29:05;2.15;;;0.88;;
33104;SDS011;19476;51.448;6.674;2023-02-26T01:42:53;2.22;;;0.68;;
33104;SDS011;19476;51.448;6.674;2023-02-26T01:46:15;4.00;;;1.05;;
33104;SDS011;19476;51.448;6.674;2023-02-26T01:48:58;2.63;;;0.70;;
33104;SDS011;19476;51.448;6.674;2023-02-26T02:00:29;1.20;;;0.68;;
33104;SDS011;19476;51.448;6.674;2023-02-26T02:09:19;4.10;;;1.00;;
33104;SDS011;19476;51.448;6.674;2023-02-26T02:11:48;3.17;;;0.70;;
33104;SDS011;19476;51.448;6.674;2023-02-26T02:15:19;2.30;;;0.63;;
33104;SDS011;19476;51.448;6.674;2023-02-26T02:40:44;3.13;;;1.02;;
33104;SDS011;19476;51.448;6.674;2023-02-26T02:43:27;2.70;;;0.80;;
33104;SDS011;19476;51.448;6.674;2023-02-26T02:46:42;1.77;;;0.68;;
33104;SDS011;19476;51.448;6.674;2023-02-26T02:49:15;2.75;;;0.50;;
33104;SDS011;19476;51.448;6.674;2023-02-26T02:55:16;2.72;;;0.80;;
33104;SDS011;19476;51.448;6.674;2023-02-26T03:01:06;2.25;;;0.55;;
33104;SDS011;19476;51.448;6.674;2023-02-26T03:10:28;2.30;;;0.57;;
33104;SDS011;19476;51.448;6.674;2023-02-26T03:12:54;1.73;;;0.60;;
33104;SDS011;19476;51.448;6.674;2023-02-26T03:28:26;4.15;;;0.90;;
33104;SDS011;19476;51.448;6.674;2023-02-26T03:34:42;2.35;;;0.70;;
33104;SDS011;19476;51.448;6.674;2023-02-26T03:37:24;3.55;;;0.60;;
33104;SDS011;19476;51.448;6.674;2023-02-26T03:40:46;2.95;;;0.70;;
33104;SDS011;19476;51.448;6.674;2023-02-26T03:43:24;2.58;;;0.70;;
33104;SDS011;19476;51.448;6.674;2023-02-26T03:49:00;1.67;;;0.47;;
33104;SDS011;19476;51.448;6.674;2023-02-26T03:51:31;3.50;;;0.50;;
33104;SDS011;19476;51.448;6.674;2023-02-26T03:54:02;2.25;;;0.70;;
33104;SDS011;19476;51.448;6.674;2023-02-26T03:56:49;0.52;;;0.30;;
33104;SDS011;19476;51.448;6.674;2023-02-26T03:59:24;3.78;;;0.65;;
33104;SDS011;19476;51.448;6.674;2023-02-26T04:05:22;1.67;;;0.50;;
33104;SDS011;19476;51.448;6.674;2023-02-26T04:07:51;2.33;;;0.60;;
33104;SDS011;19476;51.448;6.674;2023-02-26T04:13:27;2.53;;;0.50;;
33104;SDS011;19476;51.448;6.674;2023-02-26T04:16:02;2.30;;;0.60;;
33104;SDS011;19476;51.448;6.674;2023-02-26T04:18:28;0.63;;;0.35;;
33104;SDS011;19476;51.448;6.674;2023-02-26T04:20:54;2.15;;;0.45;;
33104;SDS011;19476;51.448;6.674;2023-02-26T04:23:20;3.58;;;0.73;;
33104;SDS011;19476;51.448;6.674;2023-02-26T04:29:08;1.52;;;0.50;;
33104;SDS011;19476;51.448;6.674;2023-02-26T04:31:34;1.85;;;0.70;;
33104;SDS011;19476;51.448;6.674;2023-02-26T04:37:21;2.85;;;0.43;;
33104;SDS011;19476;51.448;6.674;2023-02-26T04:42:59;3.28;;;0.50;;
33104;SDS011;19476;51.448;6.674;2023-02-26T04:48:28;2.40;;;0.60;;
33104;SDS011;19476;51.448;6.674;2023-02-26T04:57:28;2.45;;;0.60;;
33104;SDS011;19476;51.448;6.674;2023-02-26T04:59:54;2.80;;;0.57;;
33104;SDS011;19476;51.448;6.674;2023-02-26T05:08:56;2.97;;;0.60;;
33104;SDS011;19476;51.448;6.674;2023-02-26T05:14:44;2.83;;;0.60;;
33104;SDS011;19476;51.448;6.674;2023-02-26T05:17:10;1.83;;;0.50;;
33104;SDS011;19476;51.448;6.674;2023-02-26T05:22:51;6.97;;;1.20;;
33104;SDS011;19476;51.448;6.674;2023-02-26T05:25:17;1.80;;;0.73;;
33104;SDS011;19476;51.448;6.674;2023-02-26T05:27:43;1.45;;;0.55;;
33104;SDS011;19476;51.448;6.674;2023-02-26T05:30:09;2.50;;;0.55;;
33104;SDS011;19476;51.448;6.674;2023-02-26T05:32:38;3.22;;;0.50;;
33104;SDS011;19476;51.448;6.674;2023-02-26T05:35:04;2.33;;;0.68;;
33104;SDS011;19476;51.448;6.674;2023-02-26T05:37:30;1.63;;;0.47;;
33104;SDS011;19476;51.448;6.674;2023-02-26T05:39:56;1.27;;;0.40;;
33104;SDS011;19476;51.448;6.674;2023-02-26T05:42:21;3.20;;;0.60;;
33104;SDS011;19476;51.448;6.674;2023-02-26T05:44:47;2.78;;;0.50;;
33104;SDS011;19476;51.448;6.674;2023-02-26T05:47:13;2.38;;;0.73;;
33104;SDS011;19476;51.448;6.674;2023-02-26T05:49:39;3.55;;;0.43;;
33104;SDS011;19476;51.448;6.674;2023-02-26T05:52:04;3.78;;;0.55;;
33104;SDS011;19476;51.448;6.674;2023-02-26T05:54:30;1.85;;;0.73;;
33104;SDS011;19476;51.448;6.674;2023-02-26T05:56:56;3.10;;;0.70;;
33104;SDS011;19476;51.448;6.674;2023-02-26T05:59:21;2.10;;;0.60;;
33104;SDS011;19476;51.448;6.674;2023-02-26T06:01:47;3.50;;;0.90;;
33104;SDS011;19476;51.448;6.674;2023-02-26T06:04:13;3.08;;;0.50;;
33104;SDS011;19476;51.448;6.674;2023-02-26T06:06:39;2.03;;;0.70;;
33104;SDS011;19476;51.448;6.674;2023-02-26T06:09:04;2.28;;;0.70;;
33104;SDS011;19476;51.448;6.674;2023-02-26T06:11:30;2.50;;;0.40;;
33104;SDS011;19476;51.448;6.674;2023-02-26T06:13:56;2.03;;;0.60;;
33104;SDS011;19476;51.448;6.674;2023-02-26T06:16:22;3.58;;;0.63;;
33104;SDS011;19476;51.448;6.674;2023-02-26T06:18:48;4.35;;;0.50;;
33104;SDS011;19476;51.448;6.674;2023-02-26T06:21:14;1.80;;;0.60;;
33104;SDS011;19476;51.448;6.674;2023-02-26T06:23:41;2.20;;;0.50;;
33104;SDS011;19476;51.448;6.674;2023-02-26T06:26:07;2.65;;;0.60;;
33104;SDS011;19476;51.448;6.674;2023-02-26T06:28:33;1.40;;;0.40;;
33104;SDS011;19476;51.448;6.674;2023-02-26T06:30:59;1.88;;;0.88;;
33104;SDS011;19476;51.448;6.674;2023-02-26T06:33:24;3.38;;;0.80;;
33104;SDS011;19476;51.448;6.674;2023-02-26T06:35:50;1.40;;;0.50;;
33104;SDS011;19476;51.448;6.674;2023-02-26T06:38:16;5.50;;;0.73;;
33104;SDS011;19476;51.448;6.674;2023-02-26T06:40:43;1.85;;;0.47;;
33104;SDS011;19476;51.448;6.674;2023-02-26T06:43:09;3.78;;;0.55;;
33104;SDS011;19476;51.448;6.674;2023-02-26T06:45:35;2.88;;;0.60;;
33104;SDS011;19476;51.448;6.674;2023-02-26T06:48:01;1.08;;;0.50;;
33104;SDS011;19476;51.448;6.674;2023-02-26T06:50:27;2.17;;;0.60;;
33104;SDS011;19476;51.448;6.674;2023-02-26T06:52:53;3.50;;;0.73;;
33104;SDS011;19476;51.448;6.674;2023-02-26T06:55:19;2.97;;;0.60;;
33104;SDS011;19476;51.448;6.674;2023-02-26T06:57:46;1.52;;;0.75;;
33104;SDS011;19476;51.448;6.674;2023-02-26T07:00:12;2.60;;;0.40;;
33104;SDS011;19476;51.448;6.674;2023-02-26T07:02:38;3.63;;;0.90;;
33104;SDS011;19476;51.448;6.674;2023-02-26T07:05:04;2.25;;;0.57;;
33104;SDS011;19476;51.448;6.674;2023-02-26T07:07:30;1.45;;;0.43;;
33104;SDS011;19476;51.448;6.674;2023-02-26T07:09:56;1.92;;;0.70;;
33104;SDS011;19476;51.448;6.674;2023-02-26T07:12:22;2.72;;;0.60;;
33104;SDS011;19476;51.448;6.674;2023-02-26T07:14:47;1.77;;;0.68;;
33104;SDS011;19476;51.448;6.674;2023-02-26T07:17:13;2.75;;;0.60;;
33104;SDS011;19476;51.448;6.674;2023-02-26T07:19:49;3.92;;;0.70;;
33104;SDS011;19476;51.448;6.674;2023-02-26T07:22:16;2.55;;;0.60;;
33104;SDS011;19476;51.448;6.674;2023-02-26T07:24:43;1.33;;;0.40;;
33104;SDS011;19476;51.448;6.674;2023-02-26T07:27:09;3.17;;;0.77;;
33104;SDS011;19476;51.448;6.674;2023-02-26T07:29:36;3.72;;;0.60;;
33104;SDS011;19476;51.448;6.674;2023-02-26T07:32:02;4.30;;;0.60;;
33104;SDS011;19476;51.448;6.674;2023-02-26T07:34:29;2.53;;;0.80;;
33104;SDS011;19476;51.448;6.674;2023-02-26T07:36:54;2.40;;;0.88;;
33104;SDS011;19476;51.448;6.674;2023-02-26T07:39:20;3.95;;;1.02;;
33104;SDS011;19476;51.448;6.674;2023-02-26T07:41:46;3.15;;;0.98;;
33104;SDS011;19476;51.448;6.674;2023-02-26T07:44:12;1.63;;;0.68;;
33104;SDS011;19476;51.448;6.674;2023-02-26T07:46:38;3.70;;;0.70;;
33104;SDS011;19476;51.448;6.674;2023-02-26T07:49:03;3.38;;;0.88;;
33104;SDS011;19476;51.448;6.674;2023-02-26T07:51:29;3.13;;;0.70;;
33104;SDS011;19476;51.448;6.674;2023-02-26T07:53:55;2.25;;;0.80;;
33104;SDS011;19476;51.448;6.674;2023-02-26T07:56:21;4.88;;;1.00;;
33104;SDS011;19476;51.448;6.674;2023-02-26T07:58:47;4.38;;;0.70;;
33104;SDS011;19476;51.448;6.674;2023-02-26T08:01:12;2.80;;;0.80;;
33104;SDS011;19476;51.448;6.674;2023-02-26T08:03:38;3.08;;;0.70;;
33104;SDS011;19476;51.448;6.674;2023-02-26T08:06:04;2.55;;;0.68;;
33104;SDS011;19476;51.448;6.674;2023-02-26T08:08:30;2.97;;;0.60;;
33104;SDS011;19476;51.448;6.674;2023-02-26T08:11:00;3.42;;;0.70;;
33104;SDS011;19476;51.448;6.674;2023-02-26T08:13:26;3.10;;;0.98;;
33104;SDS011;19476;51.448;6.674;2023-02-26T08:15:52;2.97;;;0.75;;
33104;SDS011;19476;51.448;6.674;2023-02-26T08:18:18;4.00;;;1.20;;
33104;SDS011;19476;51.448;6.674;2023-02-26T08:20:43;4.03;;;1.20;;
33104;SDS011;19476;51.448;6.674;2023-02-26T08:23:09;6.47;;;2.13;;
33104;SDS011;19476;51.448;6.674;2023-02-26T08:25:35;4.78;;;1.40;;
33104;SDS011;19476;51.448;6.674;2023-02-26T08:28:00;4.07;;;1.17;;
33104;SDS011;19476;51.448;6.674;2023-02-26T08:30:27;8.18;;;1.70;;
33104;SDS011;19476;51.448;6.674;2023-02-26T08:32:53;5.35;;;1.08;;
33104;SDS011;19476;51.448;6.674;2023-02-26T08:35:19;3.67;;;1.10;;
33104;SDS011;19476;51.448;6.674;2023-02-26T08:37:45;4.35;;;1.35;;
33104;SDS011;19476;51.448;6.674;2023-02-26T08:40:11;3.53;;;1.17;;
33104;SDS011;19476;51.448;6.674;2023-02-26T08:42:37;4.53;;;1.00;;
33104;SDS011;19476;51.448;6.674;2023-02-26T08:45:03;3.83;;;0.95;;
33104;SDS011;19476;51.448;6.674;2023-02-26T08:47:29;3.00;;;1.15;;
33104;SDS011;19476;51.448;6.674;2023-02-26T08:49:55;2.75;;;0.50;;
33104;SDS011;19476;51.448;6.674;2023-02-26T08:52:22;4.13;;;0.95;;
33104;SDS011;19476;51.448;6.674;2023-02-26T08:54:48;3.05;;;0.73;;
33104;SDS011;19476;51.448;6.674;2023-02-26T08:57:14;2.45;;;0.75;;
33104;SDS011;19476;51.448;6.674;2023-02-26T08:59:40;3.08;;;0.52;;
33104;SDS011;19476;51.448;6.674;2023-02-26T09:02:06;2.30;;;0.75;;
33104;SDS011;19476;51.448;6.674;2023-02-26T09:04:34;1.63;;;0.47;;
33104;SDS011;19476;51.448;6.674;2023-02-26T09:06:59;3.83;;;0.80;;
33104;SDS011;19476;51.448;6.674;2023-02-26T09:09:25;3.08;;;0.52;;
33104;SDS011;19476;51.448;6.674;2023-02-26T09:11:51;2.72;;;0.77;;
33104;SDS011;19476;51.448;6.674;2023-02-26T09:14:17;4.20;;;0.88;;
33104;SDS011;19476;51.448;6.674;2023-02-26T09:16:42;2.08;;;0.60;;
33104;SDS011;19476;51.448;6.674;2023-02-26T09:19:08;2.88;;;0.75;;
33104;SDS011;19476;51.448;6.674;2023-02-26T09:21:35;4.40;;;1.23;;
33104;SDS011;19476;51.448;6.674;2023-02-26T09:24:00;3.33;;;0.65;;
33104;SDS011;19476;51.448;6.674;2023-02-26T09:26:26;1.52;;;0.60;;
33104;SDS011;19476;51.448;6.674;2023-02-26T09:28:52;4.15;;;0.82;;
33104;SDS011;19476;51.448;6.674;2023-02-26T09:31:18;2.30;;;0.45;;
33104;SDS011;19476;51.448;6.674;2023-02-26T09:33:43;1.40;;;0.38;;
33104;SDS011;19476;51.448;6.674;2023-02-26T09:36:09;3.90;;;0.60;;
33104;SDS011;19476;51.448;6.674;2023-02-26T09:38:35;4.18;;;1.02;;
33104;SDS011;19476;51.448;6.674;2023-02-26T09:41:05;2.30;;;0.50;;
33104;SDS011;19476;51.448;6.674;2023-02-26T09:49:19;1.60;;;0.30;;
33104;SDS011;19476;51.448;6.674;2023-02-26T09:51:47;1.85;;;0.55;;
33104;SDS011;19476;51.448;6.674;2023-02-26T09:54:25;1.70;;;0.32;;
33104;SDS011;19476;51.448;6.674;2023-02-26T09:56:57;1.17;;;0.60;;
33104;SDS011;19476;51.448;6.674;2023-02-26T09:59:29;1.85;;;0.50;;
33104;SDS011;19476;51.448;6.674;2023-02-26T10:02:00;1.02;;;0.40;;
33104;SDS011;19476;51.448;6.674;2023-02-26T10:10:12;2.03;;;0.50;;
33104;SDS011;19476;51.448;6.674;2023-02-26T10:12:45;1.52;;;0.68;;
33104;SDS011;19476;51.448;6.674;2023-02-26T10:15:14;2.63;;;0.60;;
33104;SDS011;19476;51.448;6.674;2023-02-26T10:20:36;3.10;;;0.65;;
33104;SDS011;19476;51.448;6.674;2023-02-26T10:23:42;3.55;;;0.85;;
33104;SDS011;19476;51.448;6.674;2023-02-26T10:40:27;2.53;;;0.70;;
33104;SDS011;19476;51.448;6.674;2023-02-26T10:46:08;1.63;;;0.63;;
33104;SDS011;19476;51.448;6.674;2023-02-26T10:51:14;1.15;;;0.45;;
33104;SDS011;19476;51.448;6.674;2023-02-26T10:53:51;1.65;;;0.40;;
33104;SDS011;19476;51.448;6.674;2023-02-26T10:56:24;1.63;;;0.40;;
33104;SDS011;19476;51.448;6.674;2023-02-26T10:58:53;0.95;;;0.40;;
33104;SDS011;19476;51.448;6.674;2023-02-26T11:01:21;1.88;;;0.30;;
33104;SDS011;19476;51.448;6.674;2023-02-26T11:03:50;2.22;;;0.63;;
33104;SDS011;19476;51.448;6.674;2023-02-26T11:06:27;2.55;;;0.60;;
33104;SDS011;19476;51.448;6.674;2023-02-26T11:08:56;2.35;;;0.50;;
33104;SDS011;19476;51.448;6.674;2023-02-26T11:14:16;1.42;;;0.22;;
33104;SDS011;19476;51.448;6.674;2023-02-26T11:16:57;1.05;;;0.35;;
33104;SDS011;19476;51.448;6.674;2023-02-26T11:19:26;1.85;;;0.75;;
33104;SDS011;19476;51.448;6.674;2023-02-26T11:21:55;2.15;;;0.65;;
33104;SDS011;19476;51.448;6.674;2023-02-26T11:24:28;1.67;;;0.50;;
33104;SDS011;19476;51.448;6.674;2023-02-26T11:26:59;1.30;;;0.50;;
33104;SDS011;19476;51.448;6.674;2023-02-26T11:29:28;1.65;;;0.55;;
33104;SDS011;19476;51.448;6.674;2023-02-26T11:32:04;2.63;;;0.60;;
33104;SDS011;19476;51.448;6.674;2023-02-26T11:34:31;2.80;;;0.75;;
33104;SDS011;19476;51.448;6.674;2023-02-26T11:36:59;2.22;;;0.50;;
33104;SDS011;19476;51.448;6.674;2023-02-26T11:39:35;1.58;;;0.50;;
33104;SDS011;19476;51.448;6.674;2023-02-26T11:42:03;1.05;;;0.30;;
33104;SDS011;19476;51.448;6.674;2023-02-26T11:44:40;0.82;;;0.30;;
33104;SDS011;19476;51.448;6.674;2023-02-26T11:50:00;1.48;;;0.38;;
33104;SDS011;19476;51.448;6.674;2023-02-26T11:52:35;3.50;;;0.52;;
33104;SDS011;19476;51.448;6.674;2023-02-26T11:55:26;0.52;;;0.30;;
33104;SDS011;19476;51.448;6.674;2023-02-26T11:58:01;3.10;;;0.50;;
33104;SDS011;19476;51.448;6.674;2023-02-26T12:00:42;1.08;;;0.47;;
33104;SDS011;19476;51.448;6.674;2023-02-26T12:03:14;1.50;;;0.32;;
33104;SDS011;19476;51.448;6.674;2023-02-26T12:05:43;1.95;;;0.50;;
33104;SDS011;19476;51.448;6.674;2023-02-26T12:08:23;2.15;;;0.68;;
33104;SDS011;19476;51.448;6.674;2023-02-26T12:16:16;0.85;;;0.50;;
33104;SDS011;19476;51.448;6.674;2023-02-26T12:18:59;2.78;;;0.80;;
33104;SDS011;19476;51.448;6.674;2023-02-26T12:40:50;3.63;;;0.70;;
33104;SDS011;19476;51.448;6.674;2023-02-26T12:52:07;2.20;;;0.50;;
33104;SDS011;19476;51.448;6.674;2023-02-26T12:54:56;1.05;;;0.28;;
33104;SDS011;19476;51.448;6.674;2023-02-26T13:02:46;2.28;;;0.70;;
33104;SDS011;19476;51.448;6.674;2023-02-26T13:11:20;1.33;;;0.40;;
33104;SDS011;19476;51.448;6.674;2023-02-26T13:19:56;1.63;;;0.50;;
33104;SDS011;19476;51.448;6.674;2023-02-26T13:25:29;0.90;;;0.50;;
33104;SDS011;19476;51.448;6.674;2023-02-26T13:31:10;0.88;;;0.50;;
33104;SDS011;19476;51.448;6.674;2023-02-26T13:33:49;0.88;;;0.20;;
33104;SDS011;19476;51.448;6.674;2023-02-26T13:36:16;0.55;;;0.40;;
33104;SDS011;19476;51.448;6.674;2023-02-26T13:41:49;1.25;;;0.70;;
33104;SDS011;19476;51.448;6.674;2023-02-26T13:53:02;1.52;;;0.60;;
33104;SDS011;19476;51.448;6.674;2023-02-26T13:55:53;0.93;;;0.40;;
33104;SDS011;19476;51.448;6.674;2023-02-26T13:58:38;1.95;;;0.47;;
33104;SDS011;19476;51.448;6.674;2023-02-26T14:01:16;1.15;;;0.60;;
33104;SDS011;19476;51.448;6.674;2023-02-26T14:09:54;2.40;;;0.80;;
33104;SDS011;19476;51.448;6.674;2023-02-26T14:17:37;1.17;;;0.50;;
33104;SDS011;19476;51.448;6.674;2023-02-26T14:22:42;1.60;;;0.70;;
33104;SDS011;19476;51.448;6.674;2023-02-26T14:25:28;1.10;;;0.50;;
33104;SDS011;19476;51.448;6.674;2023-02-26T14:30:57;2.03;;;0.68;;
33104;SDS011;19476;51.448;6.674;2023-02-26T14:33:30;1.60;;;0.40;;
33104;SDS011;19476;51.448;6.674;2023-02-26T14:36:01;1.17;;;0.45;;
33104;SDS011;19476;51.448;6.674;2023-02-26T14:38:30;1.65;;;0.57;;
33104;SDS011;19476;51.448;6.674;2023-02-26T14:41:04;1.25;;;0.40;;
33104;SDS011;19476;51.448;6.674;2023-02-26T14:43:41;1.70;;;0.52;;
33104;SDS011;19476;51.448;6.674;2023-02-26T14:46:11;1.70;;;0.50;;
33104;SDS011;19476;51.448;6.674;2023-02-26T14:48:37;2.05;;;0.75;;
33104;SDS011;19476;51.448;6.674;2023-02-26T14:54:17;1.55;;;0.45;;
33104;SDS011;19476;51.448;6.674;2023-02-26T14:57:00;2.88;;;1.00;;
33104;SDS011;19476;51.448;6.674;2023-02-26T15:08:16;1.33;;;0.50;;
33104;SDS011;19476;51.448;6.674;2023-02-26T15:23:46;2.88;;;0.80;;
33104;SDS011;19476;51.448;6.674;2023-02-26T15:26:18;0.82;;;0.40;;
33104;SDS011;19476;51.448;6.674;2023-02-26T15:29:05;1.90;;;0.57;;
33104;SDS011;19476;51.448;6.674;2023-02-26T15:31:41;2.75;;;0.80;;
33104;SDS011;19476;51.448;6.674;2023-02-26T15:34:10;2.05;;;0.88;;
33104;SDS011;19476;51.448;6.674;2023-02-26T15:36:38;2.45;;;0.70;;
33104;SDS011;19476;51.448;6.674;2023-02-26T15:39:14;4.65;;;1.75;;
33104;SDS011;19476;51.448;6.674;2023-02-26T15:41:42;3.00;;;0.90;;
33104;SDS011;19476;51.448;6.674;2023-02-26T15:44:12;2.60;;;0.80;;
33104;SDS011;19476;51.448;6.674;2023-02-26T15:46:43;1.95;;;0.60;;
33104;SDS011;19476;51.448;6.674;2023-02-26T15:49:18;1.52;;;0.45;;
33104;SDS011;19476;51.448;6.674;2023-02-26T15:51:56;2.15;;;0.70;;
33104;SDS011;19476;51.448;6.674;2023-02-26T15:54:24;3.13;;;1.10;;
33104;SDS011;19476;51.448;6.674;2023-02-26T15:56:56;2.70;;;1.20;;
33104;SDS011;19476;51.448;6.674;2023-02-26T15:59:24;1.35;;;0.70;;
33104;SDS011;19476;51.448;6.674;2023-02-26T16:01:53;1.70;;;0.70;;
33104;SDS011;19476;51.448;6.674;2023-02-26T16:04:20;1.52;;;0.60;;
33104;SDS011;19476;51.448;6.674;2023-02-26T16:06:47;2.20;;;0.70;;
33104;SDS011;19476;51.448;6.674;2023-02-26T16:09:24;1.92;;;0.45;;
33104;SDS011;19476;51.448;6.674;2023-02-26T16:11:51;1.45;;;0.52;;
33104;SDS011;19476;51.448;6.674;2023-02-26T16:14:30;2.45;;;0.60;;
33104;SDS011;19476;51.448;6.674;2023-02-26T16:17:00;3.22;;;1.13;;
33104;SDS011;19476;51.448;6.674;2023-02-26T16:19:32;2.80;;;0.82;;
33104;SDS011;19476;51.448;6.674;2023-02-26T16:22:01;5.20;;;1.75;;
33104;SDS011;19476;51.448;6.674;2023-02-26T16:24:32;2.47;;;0.85;;
33104;SDS011;19476;51.448;6.674;2023-02-26T16:27:00;2.65;;;0.88;;
33104;SDS011;19476;51.448;6.674;2023-02-26T16:29:31;1.70;;;0.80;;
33104;SDS011;19476;51.448;6.674;2023-02-26T16:32:00;1.90;;;1.08;;
33104;SDS011;19476;51.448;6.674;2023-02-26T16:34:47;0.93;;;0.40;;
33104;SDS011;19476;51.448;6.674;2023-02-26T16:37:29;0.60;;;0.43;;
33104;SDS011;19476;51.448;6.674;2023-02-26T16:42:59;3.10;;;0.60;;
33104;SDS011;19476;51.448;6.674;2023-02-26T16:47:59;2.75;;;1.13;;
33104;SDS011;19476;51.448;6.674;2023-02-26T16:50:33;1.77;;;0.80;;
33104;SDS011;19476;51.448;6.674;2023-02-26T16:53:04;1.27;;;0.50;;
33104;SDS011;19476;51.448;6.674;2023-02-26T16:55:42;2.22;;;0.60;;
33104;SDS011;19476;51.448;6.674;2023-02-26T16:58:14;2.17;;;0.60;;
33104;SDS011;19476;51.448;6.674;2023-02-26T17:00:42;1.40;;;0.68;;
33104;SDS011;19476;51.448;6.674;2023-02-26T17:03:13;1.80;;;0.80;;
33104;SDS011;19476;51.448;6.674;2023-02-26T17:05:45;1.67;;;0.50;;
33104;SDS011;19476;51.448;6.674;2023-02-26T17:08:30;0.80;;;0.45;;
33104;SDS011;19476;51.448;6.674;2023-02-26T17:11:02;1.23;;;0.50;;
33104;SDS011;19476;51.448;6.674;2023-02-26T17:13:33;1.70;;;0.52;;
33104;SDS011;19476;51.448;6.674;2023-02-26T17:16:07;0.77;;;0.35;;
33104;SDS011;19476;51.448;6.674;2023-02-26T17:18:35;1.42;;;0.40;;
33104;SDS011;19476;51.448;6.674;2023-02-26T17:21:01;1.30;;;0.60;;
33104;SDS011;19476;51.448;6.674;2023-02-26T17:23:29;1.38;;;0.60;;
33104;SDS011;19476;51.448;6.674;2023-02-26T17:25:57;1.83;;;0.95;;
33104;SDS011;19476;51.448;6.674;2023-02-26T17:28:27;1.95;;;0.85;;
33104;SDS011;19476;51.448;6.674;2023-02-26T17:31:02;1.92;;;0.82;;
33104;SDS011;19476;51.448;6.674;2023-02-26T17:33:28;2.45;;;0.90;;
33104;SDS011;19476;51.448;6.674;2023-02-26T17:35:55;1.33;;;0.52;;
33104;SDS011;19476;51.448;6.674;2023-02-26T17:38:23;1.23;;;0.70;;
33104;SDS011;19476;51.448;6.674;2023-02-26T17:40:49;2.22;;;0.90;;
33104;SDS011;19476;51.448;6.674;2023-02-26T17:43:20;1.55;;;0.70;;
33104;SDS011;19476;51.448;6.674;2023-02-26T17:45:47;2.08;;;0.70;;
33104;SDS011;19476;51.448;6.674;2023-02-26T17:48:14;1.88;;;0.80;;
33104;SDS011;19476;51.448;6.674;2023-02-26T17:53:20;1.83;;;0.85;;
33104;SDS011;19476;51.448;6.674;2023-02-26T17:55:48;2.92;;;0.95;;
33104;SDS011;19476;51.448;6.674;2023-02-26T17:58:17;1.73;;;0.60;;
33104;SDS011;19476;51.448;6.674;2023-02-26T18:00:44;1.73;;;0.70;;
33104;SDS011;19476;51.448;6.674;2023-02-26T18:03:16;3.58;;;0.90;;
33104;SDS011;19476;51.448;6.674;2023-02-26T18:05:44;2.13;;;0.85;;
33104;SDS011;19476;51.448;6.674;2023-02-26T18:08:17;3.45;;;1.00;;
33104;SDS011;19476;51.448;6.674;2023-02-26T18:10:46;1.23;;;0.60;;
33104;SDS011;19476;51.448;6.674;2023-02-26T18:13:12;1.75;;;0.88;;
33104;SDS011;19476;51.448;6.674;2023-02-26T18:15:38;2.22;;;0.68;;
33104;SDS011;19476;51.448;6.674;2023-02-26T18:18:04;3.85;;;0.80;;
33104;SDS011;19476;51.448;6.674;2023-02-26T18:20:30;2.05;;;0.70;;
33104;SDS011;19476;51.448;6.674;2023-02-26T18:22:56;2.30;;;0.80;;
33104;SDS011;19476;51.448;6.674;2023-02-26T18:25:22;1.83;;;0.80;;
33104;SDS011;19476;51.448;6.674;2023-02-26T18:27:50;3.30;;;1.00;;
33104;SDS011;19476;51.448;6.674;2023-02-26T18:30:25;1.42;;;0.60;;
33104;SDS011;19476;51.448;6.674;2023-02-26T18:32:54;1.90;;;0.70;;
33104;SDS011;19476;51.448;6.674;2023-02-26T18:35:20;2.35;;;0.95;;
33104;SDS011;19476;51.448;6.674;2023-02-26T18:37:49;1.38;;;0.73;;
33104;SDS011;19476;51.448;6.674;2023-02-26T18:40:17;2.80;;;0.82;;
33104;SDS011;19476;51.448;6.674;2023-02-26T18:42:48;2.90;;;1.10;;
33104;SDS011;19476;51.448;6.674;2023-02-26T18:45:15;3.47;;;1.48;;
33104;SDS011;19476;51.448;6.674;2023-02-26T18:47:43;2.17;;;1.30;;
33104;SDS011;19476;51.448;6.674;2023-02-26T18:50:11;3.22;;;1.15;;
33104;SDS011;19476;51.448;6.674;2023-02-26T18:52:42;2.63;;;1.00;;
33104;SDS011;19476;51.448;6.674;2023-02-26T18:55:09;2.95;;;1.25;;
33104;SDS011;19476;51.448;6.674;2023-02-26T18:57:36;5.07;;;1.67;;
33104;SDS011;19476;51.448;6.674;2023-02-26T19:00:04;5.25;;;1.73;;
33104;SDS011;19476;51.448;6.674;2023-02-26T19:02:33;4.82;;;1.77;;
33104;SDS011;19476;51.448;6.674;2023-02-26T19:04:59;3.88;;;1.55;;
33104;SDS011;19476;51.448;6.674;2023-02-26T19:07:25;4.85;;;1.65;;
33104;SDS011;19476;51.448;6.674;2023-02-26T19:09:51;3.05;;;1.25;;
33104;SDS011;19476;51.448;6.674;2023-02-26T19:12:17;4.18;;;1.30;;
33104;SDS011;19476;51.448;6.674;2023-02-26T19:14:47;3.03;;;1.30;;
33104;SDS011;19476;51.448;6.674;2023-02-26T19:17:13;3.15;;;1.13;;
33104;SDS011;19476;51.448;6.674;2023-02-26T19:19:39;4.00;;;1.27;;
33104;SDS011;19476;51.448;6.674;2023-02-26T19:22:10;4.20;;;1.48;;
33104;SDS011;19476;51.448;6.674;2023-02-26T19:24:40;1.77;;;0.98;;
33104;SDS011;19476;51.448;6.674;2023-02-26T19:27:06;2.75;;;1.05;;
33104;SDS011;19476;51.448;6.674;2023-02-26T19:29:33;3.03;;;1.30;;
33104;SDS011;19476;51.448;6.674;2023-02-26T19:32:01;2.83;;;1.20;;
33104;SDS011;19476;51.448;6.674;2023-02-26T19:34:28;5.20;;;1.58;;
33104;SDS011;19476;51.448;6.674;2023-02-26T19:36:55;2.88;;;1.20;;
33104;SDS011;19476;51.448;6.674;2023-02-26T19:39:21;2.03;;;1.00;;
33104;SDS011;19476;51.448;6.674;2023-02-26T19:41:48;2.95;;;1.25;;
33104;SDS011;19476;51.448;6.674;2023-02-26T19:44:17;2.05;;;0.77;;
33104;SDS011;19476;51.448;6.674;2023-02-26T19:46:44;2.38;;;0.95;;
33104;SDS011;19476;51.448;6.674;2023-02-26T19:49:10;4.05;;;1.13;;
33104;SDS011;19476;51.448;6.674;2023-02-26T19:51:37;1.65;;;0.85;;
33104;SDS011;19476;51.448;6.674;2023-02-26T19:54:03;1.42;;;0.82;;
33104;SDS011;19476;51.448;6.674;2023-02-26T19:56:29;1.83;;;0.70;;
33104;SDS011;19476;51.448;6.674;2023-02-26T19:58:55;1.48;;;0.50;;
33104;SDS011;19476;51.448;6.674;2023-02-26T20:01:21;1.45;;;0.77;;
33104;SDS011;19476;51.448;6.674;2023-02-26T20:03:47;1.60;;;0.80;;
33104;SDS011;19476;51.448;6.674;2023-02-26T20:06:13;2.33;;;0.90;;
33104;SDS011;19476;51.448;6.674;2023-02-26T20:08:39;1.30;;;0.68;;
33104;SDS011;19476;51.448;6.674;2023-02-26T20:11:05;3.22;;;0.85;;
33104;SDS011;19476;51.448;6.674;2023-02-26T20:13:31;2.00;;;0.90;;
33104;SDS011;19476;51.448;6.674;2023-02-26T20:16:00;3.63;;;0.88;;
33104;SDS011;19476;51.448;6.674;2023-02-26T20:24:54;2.65;;;1.02;;
33104;SDS011;19476;51.448;6.674;2023-02-26T20:27:20;2.25;;;1.00;;
33104;SDS011;19476;51.448;6.674;2023-02-26T20:32:47;1.92;;;0.82;;
33104;SDS011;19476;51.448;6.674;2023-02-26T20:35:13;3.08;;;1.00;;
33104;SDS011;19476;51.448;6.674;2023-02-26T20:58:05;3.28;;;1.60;;
33104;SDS011;19476;51.448;6.674;2023-02-26T21:04:07;2.13;;;1.23;;
33104;SDS011;19476;51.448;6.674;2023-02-26T21:06:34;4.00;;;1.42;;
33104;SDS011;19476;51.448;6.674;2023-02-26T21:09:05;3.22;;;1.50;;
33104;SDS011;19476;51.448;6.674;2023-02-26T21:11:35;3.17;;;1.70;;
33104;SDS011;19476;51.448;6.674;2023-02-26T21:14:02;2.13;;;1.27;;
33104;SDS011;19476;51.448;6.674;2023-02-26T21:16:29;3.45;;;1.65;;
33104;SDS011;19476;51.448;6.674;2023-02-26T21:18:55;3.63;;;1.25;;
33104;SDS011;19476;51.448;6.674;2023-02-26T21:21:21;5.00;;;1.55;;
33104;SDS011;19476;51.448;6.674;2023-02-26T21:23:47;3.00;;;1.38;;